sensor_id;sensor_type;location;lat;lon;timestamp;P1;durP1;ratioP1;P2;durP2;ratioP2
29816;SDS011;16805;52.956;5.906;2023-06-14T18:25:32;2.75;;;1.50;;
29816;SDS011;16805;52.956;5.906;2023-06-14T18:28:42;2.30;;;1.48;;
29816;SDS011;16805;52.956;5.906;2023-06-14T18:36:52;2.38;;;1.48;;
29816;SDS011;16805;52.956;5.906;2023-06-14T18:39:20;1.83;;;1.30;;
29816;SDS011;16805;52.956;5.906;2023-06-14T18:41:46;2.30;;;1.58;;
29816;SDS011;16805;52.956;5.906;2023-06-14T18:44:12;6.93;;;1.77;;
29816;SDS011;16805;52.956;5.906;2023-06-14T18:46:38;4.28;;;1.38;;
29816;SDS011;16805;52.956;5.906;2023-06-14T18:49:04;3.17;;;1.67;;
29816;SDS011;16805;52.956;5.906;2023-06-14T18:51:29;6.05;;;1.98;;
29816;SDS011;16805;52.956;5.906;2023-06-14T18:56:34;4.72;;;1.40;;
29816;SDS011;16805;52.956;5.906;2023-06-14T19:00:28;5.75;;;1.75;;
29816;SDS011;16805;52.956;5.906;2023-06-14T19:11:00;1.88;;;1.20;;
29816;SDS011;16805;52.956;5.906;2023-06-14T19:13:26;5.55;;;1.40;;
29816;SDS011;16805;52.956;5.906;2023-06-14T19:16:39;4.63;;;1.38;;
29816;SDS011;16805;52.956;5.906;2023-06-14T19:23:25;3.97;;;1.38;;
29816;SDS011;16805;52.956;5.906;2023-06-14T19:25:51;1.67;;;0.85;;
29816;SDS011;16805;52.956;5.906;2023-06-14T19:28:17;2.83;;;1.33;;
29816;SDS011;16805;52.956;5.906;2023-06-14T19:30:42;2.40;;;1.10;;
29816;SDS011;16805;52.956;5.906;2023-06-14T19:33:08;4.80;;;1.35;;
29816;SDS011;16805;52.956;5.906;2023-06-14T19:35:34;9.98;;;1.88;;
29816;SDS011;16805;52.956;5.906;2023-06-14T19:38:00;2.25;;;1.25;;
29816;SDS011;16805;52.956;5.906;2023-06-14T19:40:25;4.05;;;1.13;;
29816;SDS011;16805;52.956;5.906;2023-06-14T19:42:51;2.95;;;0.98;;
29816;SDS011;16805;52.956;5.906;2023-06-14T19:45:17;6.32;;;1.10;;
29816;SDS011;16805;52.956;5.906;2023-06-14T19:47:42;4.70;;;1.45;;
29816;SDS011;16805;52.956;5.906;2023-06-14T19:50:09;3.17;;;1.10;;
29816;SDS011;16805;52.956;5.906;2023-06-14T19:52:35;2.17;;;0.90;;
29816;SDS011;16805;52.956;5.906;2023-06-14T19:55:01;2.00;;;0.80;;
29816;SDS011;16805;52.956;5.906;2023-06-14T19:57:27;2.13;;;0.85;;
29816;SDS011;16805;52.956;5.906;2023-06-14T19:59:53;3.20;;;0.80;;
29816;SDS011;16805;52.956;5.906;2023-06-14T20:02:19;1.83;;;0.95;;
29816;SDS011;16805;52.956;5.906;2023-06-14T20:04:45;1.58;;;0.85;;
29816;SDS011;16805;52.956;5.906;2023-06-14T20:07:11;1.80;;;0.90;;
29816;SDS011;16805;52.956;5.906;2023-06-14T20:09:37;2.75;;;1.08;;
29816;SDS011;16805;52.956;5.906;2023-06-14T20:12:03;1.83;;;0.90;;
29816;SDS011;16805;52.956;5.906;2023-06-14T20:14:29;3.67;;;0.70;;
29816;SDS011;16805;52.956;5.906;2023-06-14T20:16:56;1.45;;;0.85;;
29816;SDS011;16805;52.956;5.906;2023-06-14T20:19:22;2.53;;;0.85;;
29816;SDS011;16805;52.956;5.906;2023-06-14T20:21:48;2.42;;;1.10;;
29816;SDS011;16805;52.956;5.906;2023-06-14T20:24:13;1.95;;;0.85;;
29816;SDS011;16805;52.956;5.906;2023-06-14T20:26:39;1.40;;;0.73;;
29816;SDS011;16805;52.956;5.906;2023-06-14T20:29:05;1.40;;;0.80;;
29816;SDS011;16805;52.956;5.906;2023-06-14T20:31:30;1.90;;;0.70;;
29816;SDS011;16805;52.956;5.906;2023-06-14T20:33:56;1.23;;;0.98;;
29816;SDS011;16805;52.956;5.906;2023-06-14T20:36:22;2.25;;;0.90;;
29816;SDS011;16805;52.956;5.906;2023-06-14T20:38:48;1.92;;;0.70;;
29816;SDS011;16805;52.956;5.906;2023-06-14T20:41:13;2.17;;;0.82;;
29816;SDS011;16805;52.956;5.906;2023-06-14T20:43:40;2.35;;;0.70;;
29816;SDS011;16805;52.956;5.906;2023-06-14T20:46:07;2.35;;;0.80;;
29816;SDS011;16805;52.956;5.906;2023-06-14T20:48:33;1.73;;;0.95;;
29816;SDS011;16805;52.956;5.906;2023-06-14T20:50:59;1.50;;;0.80;;
29816;SDS011;16805;52.956;5.906;2023-06-14T20:53:25;0.93;;;0.50;;
29816;SDS011;16805;52.956;5.906;2023-06-14T20:55:51;1.33;;;0.80;;
29816;SDS011;16805;52.956;5.906;2023-06-14T20:58:17;1.45;;;0.80;;
29816;SDS011;16805;52.956;5.906;2023-06-14T21:00:43;2.72;;;0.80;;
29816;SDS011;16805;52.956;5.906;2023-06-14T21:03:12;1.38;;;0.77;;
29816;SDS011;16805;52.956;5.906;2023-06-14T21:05:38;2.22;;;0.70;;
29816;SDS011;16805;52.956;5.906;2023-06-14T21:08:04;1.42;;;0.75;;
29816;SDS011;16805;52.956;5.906;2023-06-14T21:10:30;1.77;;;0.80;;
29816;SDS011;16805;52.956;5.906;2023-06-14T21:12:56;1.38;;;0.57;;
29816;SDS011;16805;52.956;5.906;2023-06-14T21:15:22;1.42;;;0.60;;
29816;SDS011;16805;52.956;5.906;2023-06-14T21:17:53;1.95;;;0.60;;
29816;SDS011;16805;52.956;5.906;2023-06-14T21:20:20;0.98;;;0.60;;
29816;SDS011;16805;52.956;5.906;2023-06-14T21:22:46;3.78;;;0.73;;
29816;SDS011;16805;52.956;5.906;2023-06-14T21:25:13;1.05;;;0.57;;
29816;SDS011;16805;52.956;5.906;2023-06-14T21:27:41;1.88;;;0.63;;
29816;SDS011;16805;52.956;5.906;2023-06-14T21:30:07;1.15;;;0.50;;
29816;SDS011;16805;52.956;5.906;2023-06-14T21:32:34;1.00;;;0.70;;
29816;SDS011;16805;52.956;5.906;2023-06-14T21:35:01;3.05;;;0.88;;
29816;SDS011;16805;52.956;5.906;2023-06-14T21:37:27;1.27;;;0.60;;
29816;SDS011;16805;52.956;5.906;2023-06-14T21:39:53;1.10;;;0.55;;
29816;SDS011;16805;52.956;5.906;2023-06-14T21:42:19;1.42;;;0.60;;
29816;SDS011;16805;52.956;5.906;2023-06-14T21:44:44;0.90;;;0.60;;
29816;SDS011;16805;52.956;5.906;2023-06-14T21:47:11;0.90;;;0.50;;
29816;SDS011;16805;52.956;5.906;2023-06-14T21:49:38;0.98;;;0.65;;
29816;SDS011;16805;52.956;5.906;2023-06-14T21:52:04;0.98;;;0.60;;
29816;SDS011;16805;52.956;5.906;2023-06-14T21:54:31;1.85;;;0.60;;
29816;SDS011;16805;52.956;5.906;2023-06-14T21:56:57;1.15;;;0.70;;
29816;SDS011;16805;52.956;5.906;2023-06-14T21:59:22;2.42;;;0.57;;
29816;SDS011;16805;52.956;5.906;2023-06-14T22:01:48;1.65;;;0.90;;
29816;SDS011;16805;52.956;5.906;2023-06-14T22:04:14;1.55;;;0.70;;
29816;SDS011;16805;52.956;5.906;2023-06-14T22:06:40;0.80;;;0.50;;
29816;SDS011;16805;52.956;5.906;2023-06-14T22:09:10;0.63;;;0.63;;
29816;SDS011;16805;52.956;5.906;2023-06-14T22:11:40;1.25;;;0.55;;
29816;SDS011;16805;52.956;5.906;2023-06-14T22:14:09;1.38;;;0.55;;
29816;SDS011;16805;52.956;5.906;2023-06-14T22:16:36;1.10;;;0.70;;
29816;SDS011;16805;52.956;5.906;2023-06-14T22:19:03;1.35;;;0.60;;
29816;SDS011;16805;52.956;5.906;2023-06-14T22:21:30;0.82;;;0.43;;
29816;SDS011;16805;52.956;5.906;2023-06-14T22:23:59;0.65;;;0.50;;
29816;SDS011;16805;52.956;5.906;2023-06-14T22:26:25;1.98;;;0.60;;
29816;SDS011;16805;52.956;5.906;2023-06-14T22:28:54;0.85;;;0.60;;
29816;SDS011;16805;52.956;5.906;2023-06-14T22:31:21;0.90;;;0.57;;
29816;SDS011;16805;52.956;5.906;2023-06-14T22:33:47;0.50;;;0.40;;
29816;SDS011;16805;52.956;5.906;2023-06-14T22:36:16;1.00;;;0.60;;
29816;SDS011;16805;52.956;5.906;2023-06-14T22:38:42;0.65;;;0.50;;
29816;SDS011;16805;52.956;5.906;2023-06-14T22:41:10;1.27;;;0.50;;
29816;SDS011;16805;52.956;5.906;2023-06-14T22:43:38;0.60;;;0.60;;
29816;SDS011;16805;52.956;5.906;2023-06-14T22:46:07;1.23;;;0.50;;
29816;SDS011;16805;52.956;5.906;2023-06-14T22:48:35;1.02;;;0.55;;
29816;SDS011;16805;52.956;5.906;2023-06-14T22:51:12;1.60;;;0.50;;
29816;SDS011;16805;52.956;5.906;2023-06-14T22:53:40;1.67;;;0.80;;
29816;SDS011;16805;52.956;5.906;2023-06-14T22:56:06;1.73;;;0.55;;
29816;SDS011;16805;52.956;5.906;2023-06-14T22:58:32;0.50;;;0.40;;
29816;SDS011;16805;52.956;5.906;2023-06-14T23:00:59;0.88;;;0.40;;
29816;SDS011;16805;52.956;5.906;2023-06-14T23:03:26;1.50;;;0.60;;
29816;SDS011;16805;52.956;5.906;2023-06-14T23:05:52;1.13;;;0.63;;
29816;SDS011;16805;52.956;5.906;2023-06-14T23:08:21;0.52;;;0.40;;
29816;SDS011;16805;52.956;5.906;2023-06-14T23:10:47;0.50;;;0.45;;
29816;SDS011;16805;52.956;5.906;2023-06-14T23:13:14;1.33;;;0.60;;
29816;SDS011;16805;52.956;5.906;2023-06-14T23:15:41;0.98;;;0.52;;
29816;SDS011;16805;52.956;5.906;2023-06-14T23:18:07;0.50;;;0.50;;
29816;SDS011;16805;52.956;5.906;2023-06-14T23:20:33;1.45;;;0.60;;
29816;SDS011;16805;52.956;5.906;2023-06-14T23:23:00;1.83;;;0.60;;
29816;SDS011;16805;52.956;5.906;2023-06-14T23:25:28;0.93;;;0.50;;
29816;SDS011;16805;52.956;5.906;2023-06-14T23:27:56;0.50;;;0.50;;
29816;SDS011;16805;52.956;5.906;2023-06-14T23:30:23;1.27;;;0.70;;
29816;SDS011;16805;52.956;5.906;2023-06-14T23:32:51;0.65;;;0.50;;
29816;SDS011;16805;52.956;5.906;2023-06-14T23:35:17;1.30;;;0.40;;
29816;SDS011;16805;52.956;5.906;2023-06-14T23:37:43;3.00;;;0.50;;
29816;SDS011;16805;52.956;5.906;2023-06-14T23:40:09;0.60;;;0.60;;
29816;SDS011;16805;52.956;5.906;2023-06-14T23:42:35;0.98;;;0.60;;
29816;SDS011;16805;52.956;5.906;2023-06-14T23:45:06;1.50;;;0.57;;
29816;SDS011;16805;52.956;5.906;2023-06-14T23:47:32;0.60;;;0.60;;
29816;SDS011;16805;52.956;5.906;2023-06-14T23:50:01;0.68;;;0.50;;
29816;SDS011;16805;52.956;5.906;2023-06-14T23:52:30;0.45;;;0.45;;
29816;SDS011;16805;52.956;5.906;2023-06-14T23:54:57;0.90;;;0.30;;
29816;SDS011;16805;52.956;5.906;2023-06-14T23:57:26;1.67;;;0.70;;
29816;SDS011;16805;52.956;5.906;2023-06-14T23:59:52;0.57;;;0.40;;
